📊 Raw Sensor Data
Showing records 48976 to 49000 of 85,111 total
| ID | Distance (ft) | Battery V | Battery A | Int Temp (°F) | Int Humid (%) | Ext Temp (°F) | Solar V | RSSI | SNR | Time Stamp |
|---|---|---|---|---|---|---|---|---|---|---|
| 36148 | 15.0 | 3.99 | -5 | 52 | 43 | 53 | 0.00 | -88 | 8 | 03/27/2025 08:45 PM |
| 36147 | -- | 3.99 | -5 | 53 | 43 | 55 | 0.00 | -88 | 7 | 03/27/2025 08:30 PM |
| 36146 | 15.1 | 3.99 | -5 | 53 | 44 | 54 | 0.00 | -90 | 6 | 03/27/2025 08:15 PM |
| 36145 | 15.1 | 4.05 | -5 | 53 | 44 | 54 | 0.00 | -86 | 6 | 03/27/2025 08:00 PM |
| 36144 | 15.1 | 4.00 | -5 | 54 | 45 | 55 | 0.20 | -86 | 7 | 03/27/2025 07:45 PM |
| 36143 | 15.1 | 3.99 | -9 | 56 | 44 | 56 | 3.30 | -86 | 8 | 03/27/2025 07:30 PM |
| 36142 | -- | 3.99 | -10 | 59 | 43 | 58 | 4.40 | -88 | 8 | 03/27/2025 07:15 PM |
| 36141 | -- | 4.01 | 0 | 59 | 43 | 59 | 4.50 | -89 | 8 | 03/27/2025 07:00 PM |
| 36140 | -- | 4.07 | 0 | 59 | 44 | 59 | 4.50 | -90 | 8 | 03/27/2025 06:45 PM |
| 36139 | -- | 4.07 | 5 | 60 | 44 | 59 | 4.50 | -103 | 2 | 03/27/2025 06:30 PM |
| 36138 | -- | 4.08 | 10 | 61 | 45 | 60 | 4.50 | -92 | 7 | 03/27/2025 06:15 PM |
| 36137 | -- | 4.04 | 14 | 61 | 46 | 60 | 4.50 | -88 | 8 | 03/27/2025 06:00 PM |
| 36136 | -- | 4.07 | -10 | 63 | 46 | 61 | 4.50 | -86 | 6 | 03/27/2025 05:45 PM |
| 36135 | -- | 4.09 | 7 | 65 | 47 | 61 | 4.50 | -87 | 8 | 03/27/2025 05:30 PM |
| 36134 | -- | 4.05 | 0 | 73 | 41 | 67 | 5.10 | -86 | 7 | 03/27/2025 05:15 PM |
| 36133 | -- | 4.07 | 0 | 74 | 40 | 66 | 5.10 | -88 | 7 | 03/27/2025 05:00 PM |
| 36132 | -- | 4.07 | 0 | 75 | 38 | 67 | 5.10 | -87 | 7 | 03/27/2025 04:45 PM |
| 36131 | -- | 4.06 | 0 | 73 | 37 | 68 | 5.10 | -86 | 8 | 03/27/2025 04:30 PM |
| 36130 | 15.1 | 4.10 | 0 | 69 | 38 | 66 | 5.10 | -89 | 8 | 03/27/2025 04:15 PM |
| 36129 | -- | 4.05 | 0 | 65 | 40 | 66 | 5.10 | -92 | 7 | 03/27/2025 04:00 PM |
| 36128 | -- | 4.05 | 0 | 60 | 41 | 61 | 5.10 | -92 | 7 | 03/27/2025 03:46 PM |
| 36127 | 15.1 | 4.05 | 0 | 59 | 42 | 59 | 5.10 | -101 | 6 | 03/27/2025 03:30 PM |
| 36126 | -- | 4.05 | 0 | 55 | 44 | 55 | 5.10 | -100 | 7 | 03/27/2025 03:15 PM |
| 36125 | -- | 4.05 | 0 | 57 | 44 | 56 | 5.10 | -85 | 9 | 03/27/2025 03:00 PM |
| 36124 | -- | 4.05 | 0 | 57 | 45 | 55 | 5.10 | -87 | 9 | 03/27/2025 02:45 PM |